Time;durP1;ratioP1;P1;durP2;ratioP2;P2;SDS_P1;SDS_P2;PMS_P1;PMS_P2;Temp;Humidity;BMP_temperature;BMP_pressure;BME280_temperature;BME280_humidity;BME280_pressure;Samples;Min_cycle;Max_cycle;Signal;HPM_P1;HPM_P2
2021/05/19 00:01:21;;;;;;;8.57;1.98;;;;;;;14.85;47.78;99288.38;4985504;28;20500;-72
2021/05/19 00:03:46;;;;;;;6.55;1.70;;;;;;;14.62;48.85;99299.47;5010913;28;20447;-72
2021/05/19 00:06:12;;;;;;;2.72;1.67;;;;;;;14.74;47.45;99294.59;4992717;28;20866;-72
2021/05/19 00:08:39;;;;;;;2.50;1.48;;;;;;;14.77;46.72;99295.03;5009655;28;20411;-70
2021/05/19 00:11:04;;;;;;;3.58;1.30;;;;;;;14.81;46.53;99299.56;5011992;28;20671;-70
2021/05/19 00:13:31;;;;;;;1.75;1.40;;;;;;;14.82;45.10;99300.34;5012054;28;20017;-69
2021/05/19 00:15:57;;;;;;;11.65;1.20;;;;;;;14.66;44.91;99292.75;5008420;28;20038;-69
2021/05/19 00:18:23;;;;;;;2.63;1.45;;;;;;;14.51;46.48;99302.06;5006336;28;20052;-72
2021/05/19 00:20:48;;;;;;;2.85;1.23;;;;;;;14.45;47.08;99298.69;5012033;28;20061;-72
2021/05/19 00:23:13;;;;;;;3.63;1.55;;;;;;;14.68;46.71;99307.28;5012202;28;20443;-69
2021/05/19 00:25:39;;;;;;;2.10;1.40;;;;;;;14.73;46.45;99307.03;5005718;28;20119;-72
2021/05/19 00:28:05;;;;;;;2.75;2.25;;;;;;;14.80;46.27;99309.19;5011926;28;20412;-72
2021/05/19 00:30:33;;;;;;;2.95;1.20;;;;;;;14.59;47.15;99310.28;5012113;28;20066;-69
2021/05/19 00:32:58;;;;;;;2.05;1.48;;;;;;;14.73;47.42;99312.66;5012000;28;20026;-70
2021/05/19 00:35:23;;;;;;;3.05;1.52;;;;;;;14.75;46.75;99315.09;5007982;28;20092;-69
2021/05/19 00:37:49;;;;;;;4.88;1.25;;;;;;;14.73;47.26;99314.66;5011512;28;20487;-69
2021/05/19 00:40:15;;;;;;;12.27;1.75;;;;;;;14.86;46.88;99313.34;4987435;28;20049;-69
2021/05/19 00:42:41;;;;;;;6.82;1.73;;;;;;;14.65;47.41;99308.00;4993114;28;20115;-70
2021/05/19 00:45:11;;;;;;;1.40;1.15;;;;;;;14.52;47.93;99310.09;5010957;28;20439;-70
2021/05/19 00:47:39;;;;;;;7.47;1.98;;;;;;;14.48;48.22;99309.22;5011403;28;20034;-70
2021/05/19 00:50:09;;;;;;;3.75;2.53;;;;;;;14.26;48.97;99302.28;4993835;28;20072;-70
2021/05/19 00:52:34;;;;;;;6.90;3.00;;;;;;;13.89;50.39;99303.34;4990079;28;20030;-69
2021/05/19 00:55:00;;;;;;;3.22;2.40;;;;;;;13.89;50.89;99300.53;5010590;28;20076;-71
2021/05/19 00:57:26;;;;;;;5.07;2.10;;;;;;;14.04;50.40;99312.97;5011807;28;20116;-72
2021/05/19 00:59:51;;;;;;;6.05;1.70;;;;;;;13.77;51.47;99309.88;5011260;28;20022;-72
2021/05/19 01:02:17;;;;;;;6.32;1.65;;;;;;;13.98;50.96;99317.22;5007037;28;20033;-72
2021/05/19 01:04:43;;;;;;;10.45;1.90;;;;;;;13.89;51.29;99312.59;4993565;28;20030;-72
2021/05/19 01:07:24;;;;;;;6.47;1.60;;;;;;;14.15;49.72;99310.44;4993800;28;20037;-72
2021/05/19 01:09:51;;;;;;;3.40;1.85;;;;;;;14.20;49.96;99309.34;5010153;28;20026;-72
2021/05/19 01:12:19;;;;;;;28.13;16.55;;;;;;;14.14;49.42;99312.44;4985141;28;20534;-72
2021/05/19 01:14:47;;;;;;;26.85;14.35;;;;;;;14.11;48.26;99307.50;5011154;28;20112;-72
2021/05/19 01:17:14;;;;;;;74.50;36.60;;;;;;;13.96;48.52;99311.16;4999069;28;20045;-72
2021/05/19 01:19:44;;;;;;;68.72;34.55;;;;;;;13.84;50.53;99307.25;5006763;28;20026;-72
2021/05/19 01:22:12;;;;;;;109.80;46.75;;;;;;;13.95;49.45;99320.75;5010220;28;20428;-72
2021/05/19 01:24:39;;;;;;;47.20;23.83;;;;;;;13.97;47.99;99319.22;5011012;28;20480;-70
2021/05/19 01:27:06;;;;;;;64.97;30.98;;;;;;;14.04;47.93;99316.59;4993266;28;20030;-69
2021/05/19 01:29:33;;;;;;;44.70;22.92;;;;;;;13.95;47.65;99315.13;5005885;28;20089;-69
2021/05/19 01:31:58;;;;;;;49.55;24.83;;;;;;;13.81;48.23;99304.31;5011229;28;20049;-72
2021/05/19 01:34:24;;;;;;;17.13;6.82;;;;;;;13.79;47.94;99310.31;5010773;28;20026;-70
2021/05/19 01:36:49;;;;;;;9.63;4.13;;;;;;;13.80;47.64;99314.78;5010411;28;20030;-69
2021/05/19 01:39:15;;;;;;;5.45;2.70;;;;;;;13.76;47.78;99313.88;4992748;28;20026;-69
2021/05/19 01:41:41;;;;;;;3.92;2.20;;;;;;;13.68;48.68;99307.22;5011056;28;20472;-69
2021/05/19 01:44:16;;;;;;;6.38;1.90;;;;;;;13.67;48.98;99307.59;4984174;28;20484;-70
2021/05/19 01:46:42;;;;;;;4.38;2.13;;;;;;;13.81;48.17;99310.78;4997730;28;20038;-69
2021/05/19 01:49:08;;;;;;;3.17;2.00;;;;;;;13.43;48.62;99312.94;4993091;28;20423;-72
2021/05/19 01:51:36;;;;;;;2.22;1.58;;;;;;;13.36;49.58;99306.31;5010597;28;20042;-72
2021/05/19 01:54:03;;;;;;;4.82;1.80;;;;;;;13.44;49.38;99314.59;4993093;28;20403;-72
2021/05/19 01:56:29;;;;;;;2.38;1.50;;;;;;;13.44;49.42;99303.34;4992052;28;20516;-72
2021/05/19 01:58:55;;;;;;;4.10;1.25;;;;;;;13.37;49.18;99307.94;5010611;28;20026;-69
2021/05/19 02:01:21;;;;;;;9.30;2.10;;;;;;;13.23;49.67;99313.97;5010311;28;20103;-69
2021/05/19 02:03:47;;;;;;;7.75;1.70;;;;;;;13.25;49.73;99320.84;5010434;28;20034;-69
2021/05/19 02:06:13;;;;;;;11.13;2.40;;;;;;;13.20;49.70;99321.91;5009714;28;20460;-70
2021/05/19 02:08:38;;;;;;;6.20;1.20;;;;;;;13.16;49.68;99314.59;4992167;28;20044;-69
2021/05/19 02:11:04;;;;;;;13.02;2.22;;;;;;;13.12;49.65;99319.25;4992566;28;20057;-70
2021/05/19 02:13:30;;;;;;;10.57;2.28;;;;;;;13.04;50.08;99307.84;5007854;28;20488;-71
2021/05/19 02:15:55;;;;;;;4.22;1.67;;;;;;;13.02;50.32;99304.53;5008637;28;20108;-69
2021/05/19 02:18:21;;;;;;;8.73;2.10;;;;;;;13.13;49.96;99302.06;5009914;28;20049;-69
2021/05/19 02:20:46;;;;;;;7.00;1.95;;;;;;;13.14;50.29;99314.09;5010415;28;20038;-69
2021/05/19 02:23:11;;;;;;;12.32;2.40;;;;;;;13.02;50.25;99310.16;5005519;28;20045;-69
2021/05/19 02:25:37;;;;;;;9.55;2.13;;;;;;;12.93;50.39;99315.13;5010032;28;20038;-72
2021/05/19 02:28:03;;;;;;;10.13;3.15;;;;;;;12.78;51.29;99325.09;5010268;28;20480;-72
2021/05/19 02:30:30;;;;;;;11.90;2.42;;;;;;;12.45;51.53;99335.28;5010195;28;20040;-72
2021/05/19 02:32:56;;;;;;;4.70;2.20;;;;;;;12.11;52.71;99330.94;5004762;28;20076;-72
2021/05/19 02:35:21;;;;;;;11.02;3.28;;;;;;;11.90;53.31;99315.81;5010216;28;20030;-72
2021/05/19 02:37:47;;;;;;;9.40;3.00;;;;;;;11.92;53.34;99332.31;5009881;28;20037;-72
2021/05/19 02:40:14;;;;;;;4.65;2.45;;;;;;;11.96;53.95;99332.44;5009791;28;20099;-72
2021/05/19 02:42:40;;;;;;;12.20;2.45;;;;;;;12.09;53.19;99336.91;5005706;28;20026;-72
2021/05/19 02:45:07;;;;;;;8.30;3.08;;;;;;;12.08;52.77;99340.88;5007958;28;20045;-72
2021/05/19 02:47:33;;;;;;;11.15;3.47;;;;;;;12.06;53.21;99337.59;5009357;28;20105;-72
2021/05/19 02:49:58;;;;;;;11.07;2.88;;;;;;;11.96;52.99;99330.44;4990363;28;20133;-72
2021/05/19 02:52:24;;;;;;;5.70;2.53;;;;;;;11.88;53.46;99320.97;5002474;28;20580;-72
2021/05/19 02:54:49;;;;;;;4.15;2.88;;;;;;;11.87;53.20;99322.13;4991463;28;20025;-69
2021/05/19 02:57:15;;;;;;;9.25;2.50;;;;;;;11.92;53.49;99326.69;4991902;28;20170;-69
2021/05/19 02:59:40;;;;;;;4.38;2.75;;;;;;;11.99;53.29;99326.91;5005078;28;20036;-69
2021/05/19 03:02:06;;;;;;;10.15;2.50;;;;;;;11.91;53.62;99328.66;4992284;28;20026;-70
2021/05/19 03:04:31;;;;;;;3.65;2.40;;;;;;;12.10;52.58;99332.09;5010021;28;20061;-72
2021/05/19 03:06:57;;;;;;;9.00;2.33;;;;;;;12.03;53.26;99339.13;4992296;28;20037;-72
2021/05/19 03:09:22;;;;;;;9.05;3.63;;;;;;;12.07;53.20;99337.25;5007144;28;20041;-72
2021/05/19 03:11:48;;;;;;;5.85;2.67;;;;;;;12.20;53.49;99337.25;5009961;28;20057;-72
2021/05/19 03:14:13;;;;;;;4.15;2.10;;;;;;;12.20;52.97;99340.91;5009861;28;20049;-69
2021/05/19 03:16:39;;;;;;;7.88;2.53;;;;;;;12.18;53.09;99334.00;5009592;28;20056;-69
2021/05/19 03:19:06;;;;;;;8.93;2.72;;;;;;;12.15;53.60;99329.09;5004966;28;20522;-69
2021/05/19 03:21:32;;;;;;;5.55;2.40;;;;;;;12.14;53.76;99333.88;5013208;28;20140;-69
2021/05/19 03:23:58;;;;;;;5.20;2.22;;;;;;;12.17;53.48;99337.97;4995660;28;20555;-70
2021/05/19 03:26:23;;;;;;;7.05;2.65;;;;;;;12.18;53.12;99334.81;4994943;28;20511;-69
2021/05/19 03:28:49;;;;;;;4.13;2.63;;;;;;;12.26;53.05;99338.69;4993422;28;20484;-69
2021/05/19 03:31:15;;;;;;;14.00;4.57;;;;;;;12.32;53.07;99337.28;5013223;28;20026;-72
2021/05/19 03:33:41;;;;;;;10.75;2.17;;;;;;;12.41;52.72;99331.53;5013188;28;20109;-72
2021/05/19 03:36:07;;;;;;;19.02;2.85;;;;;;;12.52;52.27;99336.69;5010623;28;20041;-73
2021/05/19 03:38:33;;;;;;;8.23;2.95;;;;;;;12.45;52.46;99332.50;5012290;28;20037;-74
2021/05/19 03:41:01;;;;;;;5.50;2.47;;;;;;;12.50;52.67;99323.81;5012901;28;20049;-73
2021/05/19 03:43:26;;;;;;;19.42;3.90;;;;;;;12.61;52.06;99326.16;5012901;28;20101;-73
2021/05/19 03:45:52;;;;;;;15.18;2.63;;;;;;;12.57;52.66;99330.84;4995294;28;20044;-71
2021/05/19 03:48:18;;;;;;;13.20;2.63;;;;;;;12.45;52.77;99320.44;4995177;28;20479;-70
2021/05/19 03:50:44;;;;;;;23.85;2.83;;;;;;;12.31;53.45;99323.63;4995084;28;20121;-71
2021/05/19 03:53:10;;;;;;;11.68;2.92;;;;;;;12.23;53.80;99325.34;5003866;28;20034;-69
2021/05/19 03:55:36;;;;;;;21.85;4.55;;;;;;;12.17;54.11;99319.16;4996773;28;20045;-69
2021/05/19 03:58:02;;;;;;;14.82;3.40;;;;;;;12.04;55.11;99320.31;4994287;28;20040;-68
2021/05/19 04:00:31;;;;;;;8.15;2.40;;;;;;;11.99;55.30;99318.50;4994444;28;20125;-68
2021/05/19 04:02:56;;;;;;;9.98;2.70;;;;;;;11.95;56.12;99314.78;4992869;28;20076;-68
2021/05/19 04:05:26;;;;;;;19.98;3.50;;;;;;;11.78;57.14;99319.44;5012290;28;20030;-68
2021/05/19 04:07:53;;;;;;;20.83;3.92;;;;;;;11.90;57.40;99326.22;5012062;28;20028;-68
2021/05/19 04:10:20;;;;;;;14.25;3.60;;;;;;;11.89;57.39;99328.19;4994253;28;20036;-69
2021/05/19 04:12:48;;;;;;;5.90;3.10;;;;;;;11.84;57.84;99331.25;5008799;28;20487;-70
2021/05/19 04:15:15;;;;;;;7.00;3.45;;;;;;;11.73;58.35;99330.84;5011700;28;20061;-69
2021/05/19 04:17:40;;;;;;;4.82;3.05;;;;;;;11.81;58.90;99326.31;5011618;28;20424;-72
2021/05/19 04:20:06;;;;;;;16.58;3.53;;;;;;;11.88;58.43;99326.56;5011406;28;20053;-71
2021/05/19 04:22:32;;;;;;;5.72;2.78;;;;;;;12.07;57.88;99328.84;4991044;28;20092;-71
2021/05/19 04:24:57;;;;;;;18.50;3.85;;;;;;;12.18;58.06;99336.81;4994203;28;20393;-71
2021/05/19 04:27:23;;;;;;;21.02;3.40;;;;;;;12.31;57.81;99332.84;4989872;28;20519;-72
2021/05/19 04:29:48;;;;;;;5.55;2.33;;;;;;;12.41;57.42;99341.97;5009344;28;20034;-73
2021/05/19 04:32:14;;;;;;;5.70;2.40;;;;;;;12.56;56.88;99337.63;4981007;28;20476;-72
2021/05/19 04:34:39;;;;;;;9.70;2.63;;;;;;;12.65;56.30;99335.50;5011364;28;20033;-69
2021/05/19 04:37:06;;;;;;;3.45;2.30;;;;;;;12.84;55.63;99325.66;5011659;28;20037;-73
2021/05/19 04:39:32;;;;;;;3.65;2.08;;;;;;;12.93;55.50;99337.56;4991532;28;20041;-69
2021/05/19 04:41:58;;;;;;;3.70;1.90;;;;;;;13.09;54.99;99331.22;5010740;28;20049;-70
2021/05/19 04:44:23;;;;;;;2.42;1.83;;;;;;;13.19;54.67;99328.72;5011153;28;20030;-69
2021/05/19 04:46:49;;;;;;;3.28;1.75;;;;;;;13.42;54.01;99327.34;4993925;28;20038;-71
2021/05/19 04:49:14;;;;;;;6.47;2.22;;;;;;;13.55;53.81;99319.69;5000962;28;20026;-71
2021/05/19 04:51:40;;;;;;;3.90;1.88;;;;;;;13.57;53.40;99320.97;5011663;28;20034;-70
2021/05/19 04:54:07;;;;;;;38.22;4.40;;;;;;;13.73;53.27;99318.22;4993935;28;20562;-71
2021/05/19 04:56:33;;;;;;;26.80;4.15;;;;;;;14.02;52.71;99315.34;5011177;28;20483;-71
2021/05/19 04:58:58;;;;;;;13.70;3.22;;;;;;;14.09;50.39;99325.94;5006548;28;20032;-71
2021/05/19 05:01:24;;;;;;;18.85;4.53;;;;;;;14.12;50.80;99317.63;5011529;28;20045;-74
2021/05/19 05:03:49;;;;;;;6.68;3.53;;;;;;;14.23;51.15;99320.69;5011247;28;20014;-76
2021/05/19 05:06:15;;;;;;;9.43;3.20;;;;;;;14.46;50.05;99312.38;5007956;28;20381;-75
2021/05/19 05:08:41;;;;;;;12.98;5.53;;;;;;;14.60;50.31;99311.13;4993366;28;20036;-75
2021/05/19 05:11:06;;;;;;;6.40;2.85;;;;;;;14.67;50.04;99314.09;5011244;28;20034;-72
2021/05/19 05:13:32;;;;;;;11.45;3.28;;;;;;;14.84;48.91;99310.06;5011137;28;20072;-73
2021/05/19 05:15:57;;;;;;;13.85;4.78;;;;;;;14.78;48.17;99313.56;5006893;28;20060;-72
2021/05/19 05:18:23;;;;;;;12.40;4.05;;;;;;;14.76;48.53;99311.09;5010871;28;20093;-72
2021/05/19 05:20:48;;;;;;;19.60;6.70;;;;;;;14.81;48.84;99304.34;5011216;28;20172;-72
2021/05/19 05:23:14;;;;;;;16.88;6.85;;;;;;;14.80;49.23;99308.34;5011103;28;20030;-73
2021/05/19 05:25:40;;;;;;;42.95;16.95;;;;;;;14.81;51.52;99321.25;4992374;28;20519;-72
2021/05/19 05:28:05;;;;;;;26.58;14.68;;;;;;;14.95;48.74;99313.13;5010966;28;20022;-73
2021/05/19 05:30:31;;;;;;;9.10;3.70;;;;;;;14.76;49.20;99318.75;4993299;28;20096;-72
2021/05/19 05:32:56;;;;;;;4.82;2.35;;;;;;;14.96;48.63;99314.78;5010537;28;20453;-72
2021/05/19 05:35:22;;;;;;;8.27;2.65;;;;;;;15.01;48.03;99325.75;4992530;28;20034;-68
2021/05/19 05:37:47;;;;;;;18.00;3.40;;;;;;;15.20;48.70;99320.50;4993108;28;20026;-73
2021/05/19 05:40:13;;;;;;;15.55;3.38;;;;;;;15.25;49.56;99317.38;5010514;28;20105;-72
2021/05/19 05:42:39;;;;;;;10.02;2.58;;;;;;;15.29;47.99;99319.06;5007014;28;20022;-72
2021/05/19 05:45:06;;;;;;;3.30;1.60;;;;;;;15.33;48.12;99321.97;5010342;28;20033;-71
2021/05/19 05:47:32;;;;;;;2.63;1.63;;;;;;;15.57;47.75;99317.22;5007923;28;20472;-73
2021/05/19 05:49:58;;;;;;;3.38;1.80;;;;;;;15.68;47.46;99311.75;5010448;28;20030;-72
2021/05/19 05:52:24;;;;;;;4.28;1.70;;;;;;;15.90;44.89;99309.38;5004137;28;20116;-74
2021/05/19 05:54:50;;;;;;;6.30;2.30;;;;;;;16.07;43.33;99310.88;4992165;28;20061;-71
2021/05/19 05:57:15;;;;;;;13.60;1.60;;;;;;;16.30;44.10;99307.25;4993033;28;20037;-69
2021/05/19 05:59:41;;;;;;;4.53;1.30;;;;;;;16.49;42.86;99297.84;5010453;28;20030;-79
2021/05/19 06:02:07;;;;;;;5.60;1.30;;;;;;;16.69;40.33;99301.38;4991123;28;20045;-73
2021/05/19 06:04:33;;;;;;;5.72;1.27;;;;;;;16.73;41.60;99298.63;5005062;28;20033;-73
2021/05/19 06:06:59;;;;;;;10.18;1.95;;;;;;;16.93;40.98;99293.66;4990788;28;20033;-72
2021/05/19 06:09:24;;;;;;;8.63;3.28;;;;;;;17.30;40.43;99289.31;4990783;28;20041;-68
2021/05/19 06:11:50;;;;;;;14.52;7.05;;;;;;;17.56;40.57;99277.09;5005915;28;20408;-73
2021/05/19 06:14:18;;;;;;;6.35;1.30;;;;;;;17.71;39.50;99286.53;5008393;28;20404;-70
2021/05/19 06:16:43;;;;;;;3.45;1.42;;;;;;;17.64;39.12;99283.63;4984960;28;20047;-73
2021/05/19 06:19:09;;;;;;;5.03;1.15;;;;;;;17.81;39.57;99273.72;4971455;28;20420;-73
2021/05/19 06:21:34;;;;;;;4.00;1.33;;;;;;;17.82;40.74;99276.13;4969322;28;20489;-74
2021/05/19 06:24:01;;;;;;;9.25;1.65;;;;;;;18.06;38.79;99270.31;4957163;28;20038;-73
2021/05/19 06:26:26;;;;;;;3.03;1.33;;;;;;;18.12;39.00;99270.78;4971412;28;20035;-73
2021/05/19 06:28:52;;;;;;;8.43;1.40;;;;;;;18.43;38.09;99263.72;4983605;28;20042;-77
2021/05/19 06:31:17;;;;;;;2.38;1.60;;;;;;;18.60;38.27;99261.41;4978363;28;20169;-72
2021/05/19 06:33:43;;;;;;;8.48;1.27;;;;;;;18.82;37.63;99258.69;4989591;28;20077;-75
2021/05/19 06:36:08;;;;;;;21.90;4.82;;;;;;;19.04;37.74;99262.47;4989360;28;20026;-76
2021/05/19 06:38:34;;;;;;;16.52;1.75;;;;;;;19.15;36.57;99252.00;4985529;28;20444;-75
2021/05/19 06:40:59;;;;;;;4.68;1.20;;;;;;;19.30;36.61;99240.69;4986187;28;20038;-72
2021/05/19 06:43:25;;;;;;;3.40;1.95;;;;;;;19.47;35.76;99234.28;4989862;28;20030;-76
2021/05/19 06:45:50;;;;;;;5.65;1.10;;;;;;;19.38;36.22;99225.34;4989373;28;20023;-70
2021/05/19 06:48:16;;;;;;;3.40;1.50;;;;;;;19.42;37.86;99228.97;4981515;28;20317;-71
2021/05/19 06:50:41;;;;;;;3.15;1.20;;;;;;;19.66;37.44;99226.59;4974983;28;20114;-73
2021/05/19 06:53:07;;;;;;;4.50;1.60;;;;;;;19.77;37.97;99223.78;4989416;28;20157;-83
2021/05/19 06:55:32;;;;;;;2.58;0.90;;;;;;;19.90;36.57;99212.84;4993189;28;20041;-75
2021/05/19 06:57:58;;;;;;;2.75;1.25;;;;;;;19.97;36.97;99210.03;4978889;28;20034;-81
2021/05/19 07:00:24;;;;;;;3.72;1.17;;;;;;;20.18;39.05;99216.94;4974761;28;20108;-74
2021/05/19 07:02:49;;;;;;;1.20;0.90;;;;;;;20.36;38.74;99218.91;4973648;28;20133;-78
2021/05/19 07:05:15;;;;;;;2.30;1.02;;;;;;;20.69;34.54;99214.78;4973300;28;20098;-74
2021/05/19 07:07:41;;;;;;;5.13;1.23;;;;;;;20.47;37.82;99216.88;4965747;28;20058;-73
2021/05/19 07:10:07;;;;;;;4.88;0.90;;;;;;;20.37;37.81;99218.53;4972277;28;20030;-72
2021/05/19 07:12:33;;;;;;;3.85;1.25;;;;;;;20.54;37.51;99213.19;4974540;28;20027;-75
2021/05/19 07:15:02;;;;;;;6.82;0.90;;;;;;;20.52;37.74;99201.44;4973581;28;20425;-74
2021/05/19 07:17:28;;;;;;;1.70;0.80;;;;;;;20.97;36.10;99200.91;4997922;28;20058;-74
2021/05/19 07:19:53;;;;;;;1.80;1.10;;;;;;;21.25;35.37;99193.47;4995593;28;20476;-72
2021/05/19 07:22:19;;;;;;;3.90;0.80;;;;;;;21.57;33.74;99181.06;5013840;28;20046;-72
2021/05/19 07:24:47;;;;;;;2.72;1.13;;;;;;;21.57;34.86;99181.06;4992617;28;20038;-72
2021/05/19 07:27:13;;;;;;;3.67;0.80;;;;;;;21.51;37.36;99174.22;4994241;28;20076;-72
2021/05/19 07:29:38;;;;;;;7.88;1.10;;;;;;;21.36;36.63;99170.66;5013401;28;20503;-70
2021/05/19 07:32:05;;;;;;;3.90;1.10;;;;;;;21.24;35.76;99157.72;5013646;28;20507;-72
2021/05/19 07:34:31;;;;;;;0.90;0.70;;;;;;;21.44;35.64;99167.31;4994656;28;20045;-77
2021/05/19 07:36:56;;;;;;;5.03;0.80;;;;;;;21.61;35.72;99170.47;4995384;28;20030;-73
2021/05/19 07:39:22;;;;;;;4.88;0.80;;;;;;;21.79;35.36;99180.94;5012392;28;20420;-72
2021/05/19 07:41:48;;;;;;;2.95;1.10;;;;;;;21.71;34.75;99178.13;4981009;28;20341;-73
2021/05/19 07:44:13;;;;;;;6.60;1.33;;;;;;;21.92;34.64;99173.50;5006710;28;20033;-75
2021/05/19 07:46:39;;;;;;;2.72;0.93;;;;;;;22.29;34.02;99177.63;5011129;28;20530;-77
2021/05/19 07:49:06;;;;;;;1.20;0.82;;;;;;;22.57;33.41;99166.38;4993307;28;20483;-74
2021/05/19 07:51:31;;;;;;;2.05;0.93;;;;;;;22.67;33.55;99178.88;5007578;28;20025;-74
2021/05/19 07:53:57;;;;;;;1.27;0.80;;;;;;;22.58;32.92;99177.34;4999987;28;20522;-74
2021/05/19 07:56:33;;;;;;;2.95;0.80;;;;;;;22.36;33.80;99161.69;4994498;28;20049;-73
2021/05/19 07:59:18;;;;;;;2.83;1.13;;;;;;;22.27;33.87;99160.16;5012852;28;20030;-72
2021/05/19 08:02:01;;;;;;;3.15;0.93;;;;;;;22.54;33.07;99162.31;5008111;28;20026;-74
2021/05/19 08:04:27;;;;;;;3.70;1.48;;;;;;;22.28;34.16;99166.66;4987643;28;20070;-73
2021/05/19 08:06:53;;;;;;;3.78;1.23;;;;;;;22.47;33.47;99156.69;5011122;28;20029;-72
2021/05/19 08:09:18;;;;;;;4.72;1.38;;;;;;;22.35;33.53;99157.22;5010348;28;20033;-77
2021/05/19 08:11:44;;;;;;;190.30;16.00;;;;;;;21.94;35.20;99156.78;4997118;28;20451;-72
2021/05/19 08:14:09;;;;;;;73.03;6.57;;;;;;;22.39;34.44;99158.00;4991603;28;20034;-72
2021/05/19 08:16:34;;;;;;;4.80;1.35;;;;;;;22.38;33.86;99156.38;5012127;28;20065;-73
2021/05/19 08:19:00;;;;;;;12.57;1.42;;;;;;;22.64;33.64;99142.66;5007484;28;20030;-73
2021/05/19 08:21:26;;;;;;;7.47;1.52;;;;;;;22.61;34.41;99138.63;5012574;28;20038;-72
2021/05/19 08:23:51;;;;;;;4.10;1.42;;;;;;;22.91;31.94;99133.38;4994507;28;20022;-72
2021/05/19 08:26:17;;;;;;;1.30;1.20;;;;;;;22.74;34.37;99127.47;4994403;28;20092;-72
2021/05/19 08:28:43;;;;;;;7.53;1.10;;;;;;;23.08;31.67;99122.94;5007717;28;20025;-73
2021/05/19 08:31:10;;;;;;;2.65;1.23;;;;;;;22.72;34.16;99127.09;4994023;28;20033;-72
2021/05/19 08:33:35;;;;;;;4.38;1.73;;;;;;;22.79;33.56;99121.28;4994750;28;20040;-72
2021/05/19 08:36:00;;;;;;;5.40;1.00;;;;;;;22.83;33.63;99116.38;4994128;28;20427;-73
2021/05/19 08:38:26;;;;;;;7.88;1.15;;;;;;;23.17;33.06;99111.81;5005514;28;20045;-72
2021/05/19 08:40:51;;;;;;;2.65;1.30;;;;;;;23.19;34.47;99106.47;5011899;28;20042;-71
2021/05/19 08:43:17;;;;;;;5.05;1.48;;;;;;;23.20;33.43;99110.94;4987874;28;20037;-71
2021/05/19 08:45:42;;;;;;;1.67;1.05;;;;;;;23.19;34.35;99108.53;4982473;28;20064;-71
2021/05/19 08:48:09;;;;;;;8.75;1.48;;;;;;;23.32;34.01;99106.75;5010382;28;20029;-72
2021/05/19 08:50:36;;;;;;;5.20;1.20;;;;;;;23.19;33.13;99105.69;5011894;28;20034;-72
2021/05/19 08:53:07;;;;;;;8.38;1.42;;;;;;;23.22;32.21;99097.06;5011536;28;20107;-73
2021/05/19 08:55:32;;;;;;;;;;;;;;;23.36;33.21;99098.91;4992559;28;20026;-74
2021/05/19 08:57:57;;;;;;;4.28;1.15;;;;;;;23.02;32.27;99099.00;5011338;28;19920;-72
2021/05/19 09:00:23;;;;;;;2.47;0.88;;;;;;;23.09;33.40;99094.00;5011619;28;20101;-73
2021/05/19 09:03:06;;;;;;;2.55;0.77;;;;;;;23.26;33.14;99092.13;4993887;28;20077;-71
2021/05/19 09:05:33;;;;;;;5.68;1.15;;;;;;;23.26;33.11;99088.44;5007302;28;20042;-73
2021/05/19 09:08:07;;;;;;;6.03;0.85;;;;;;;23.20;34.05;99090.97;5011423;28;20106;-72
2021/05/19 09:10:32;;;;;;;3.60;0.77;;;;;;;23.33;31.86;99085.53;4993935;28;20095;-75
2021/05/19 09:12:58;;;;;;;4.10;1.15;;;;;;;23.33;30.51;99071.25;5009643;28;20026;-74
2021/05/19 09:15:24;;;;;;;13.30;1.35;;;;;;;23.26;31.56;99075.00;5010604;28;20745;-73
2021/05/19 09:17:57;;;;;;;7.18;0.95;;;;;;;23.31;32.43;99064.38;5011061;28;20060;-73
2021/05/19 09:20:23;;;;;;;2.47;1.25;;;;;;;23.06;32.53;99056.97;4993459;28;20022;-74
2021/05/19 09:23:00;;;;;;;4.47;0.82;;;;;;;23.16;31.96;99052.34;5006488;28;20037;-76
2021/05/19 09:25:31;;;;;;;3.58;0.90;;;;;;;22.89;33.19;99056.84;5010912;28;20479;-73
2021/05/19 09:28:00;;;;;;;1.42;0.70;;;;;;;22.82;32.39;99052.03;5011144;28;20072;-73
2021/05/19 09:30:37;;;;;;;4.05;0.80;;;;;;;23.01;30.31;99046.88;4986614;28;20033;-73
2021/05/19 09:33:24;;;;;;;5.88;1.10;;;;;;;22.73;31.00;99054.59;4986179;28;20538;-75
2021/05/19 09:36:15;;;;;;;6.72;1.00;;;;;;;22.71;31.55;99043.63;4993487;28;20038;-71
2021/05/19 09:38:41;;;;;;;3.50;1.20;;;;;;;23.14;31.07;99042.16;5001881;28;20046;-72
2021/05/19 09:41:35;;;;;;;3.70;1.30;;;;;;;23.32;31.38;99043.16;5007703;28;20052;-71
2021/05/19 09:44:01;;;;;;;5.93;1.40;;;;;;;23.44;30.65;99033.97;5002327;28;20038;-73
2021/05/19 09:49:12;;;;;;;8.82;1.38;;;;;;;24.01;28.89;99028.47;5011516;28;20030;-72
2021/05/19 09:51:37;;;;;;;3.63;0.93;;;;;;;23.83;28.06;99021.06;5003169;28;20036;-71
2021/05/19 09:54:03;;;;;;;2.47;0.77;;;;;;;23.89;30.26;99015.66;5010731;28;20030;-71
2021/05/19 09:56:28;;;;;;;4.05;1.10;;;;;;;23.84;29.57;99019.81;5010743;28;20022;-72
2021/05/19 09:58:54;;;;;;;3.92;1.20;;;;;;;24.05;29.53;99009.22;4988974;28;20034;-70
2021/05/19 10:01:20;;;;;;;5.68;1.63;;;;;;;24.28;30.56;99009.59;5010241;28;20038;-73
2021/05/19 10:03:46;;;;;;;4.80;1.35;;;;;;;24.12;29.94;99008.25;4992940;28;20117;-74
2021/05/19 10:08:43;;;;;;;3.75;1.30;;;;;;;24.08;28.84;98991.22;5002747;28;20503;-70
2021/05/19 10:11:10;;;;;;;11.00;1.73;;;;;;;24.11;29.44;98987.47;5010511;28;20064;-71
2021/05/19 10:13:37;;;;;;;4.07;1.30;;;;;;;24.10;29.20;98990.75;5010537;28;20026;-74
2021/05/19 10:16:05;;;;;;;3.15;1.08;;;;;;;24.16;28.40;98980.44;5005005;28;20033;-77
2021/05/19 10:18:50;;;;;;;2.25;1.10;;;;;;;24.32;28.55;98978.88;5009205;28;20069;-79
2021/05/19 10:21:18;;;;;;;2.10;1.10;;;;;;;24.41;29.01;98979.09;5003058;28;20549;-72
2021/05/19 10:24:09;;;;;;;5.32;1.38;;;;;;;24.67;28.48;98974.41;4991871;28;20120;-73
2021/05/19 10:27:01;;;;;;;15.45;1.55;;;;;;;24.78;26.56;98968.47;4992314;28;20030;-73
2021/05/19 10:29:45;;;;;;;5.47;1.30;;;;;;;24.80;27.64;98954.53;5011248;28;20048;-74
2021/05/19 10:32:19;;;;;;;5.00;1.00;;;;;;;24.85;27.80;98956.06;5014371;28;20038;-76
2021/05/19 10:34:45;;;;;;;6.25;1.13;;;;;;;24.59;27.78;98964.41;4985504;28;20033;-73
2021/05/19 10:37:26;;;;;;;2.35;1.02;;;;;;;24.77;27.42;98957.47;5014359;28;20038;-73
2021/05/19 10:40:15;;;;;;;5.22;2.17;;;;;;;25.17;26.94;98951.59;4987755;28;20033;-69
2021/05/19 10:42:43;;;;;;;2.08;1.02;;;;;;;25.02;27.02;98961.78;5009620;28;20030;-75
2021/05/19 10:45:15;;;;;;;9.18;0.98;;;;;;;25.25;27.68;98952.22;5013671;28;20043;-75
2021/05/19 10:47:45;;;;;;;2.63;1.02;;;;;;;25.36;26.22;98954.78;5013715;28;20030;-74
2021/05/19 10:58:39;;;;;;;6.85;1.13;;;;;;;25.41;28.56;98939.94;5013465;28;20084;-73
2021/05/19 11:01:10;;;;;;;5.05;0.82;;;;;;;25.43;27.48;98930.88;5013663;28;20061;-74
2021/05/19 11:03:39;;;;;;;1.70;0.90;;;;;;;25.48;27.01;98921.75;5002367;28;20035;-74
2021/05/19 11:06:08;;;;;;;3.15;0.85;;;;;;;25.56;27.02;98925.25;5013322;28;20038;-74
2021/05/19 11:08:35;;;;;;;2.75;1.25;;;;;;;25.69;27.46;98919.56;4995590;28;20033;-73
2021/05/19 11:11:15;;;;;;;3.35;0.70;;;;;;;25.91;26.45;98923.41;5010721;28;20034;-71
2021/05/19 11:13:54;;;;;;;2.42;1.20;;;;;;;25.86;26.63;98924.00;5013687;28;20022;-72
2021/05/19 11:16:24;;;;;;;2.33;1.40;;;;;;;26.07;27.66;98910.28;4995431;28;20573;-77
2021/05/19 11:19:06;;;;;;;1.52;1.00;;;;;;;25.98;26.63;98910.16;4996137;28;20108;-71
2021/05/19 11:21:32;;;;;;;7.93;1.25;;;;;;;26.07;26.13;98907.44;5013183;28;20053;-74
2021/05/19 11:24:12;;;;;;;5.57;0.98;;;;;;;26.12;26.21;98906.84;5012356;28;20028;-73
2021/05/19 11:26:46;;;;;;;5.78;1.20;;;;;;;26.17;25.26;98902.63;4998003;28;20492;-72
2021/05/19 11:29:13;;;;;;;4.80;1.30;;;;;;;26.07;27.04;98898.84;5009209;28;20033;-72
2021/05/19 11:31:44;;;;;;;7.38;1.40;;;;;;;26.13;27.34;98894.13;5010677;28;20479;-71
2021/05/19 11:34:12;;;;;;;6.40;1.00;;;;;;;26.12;27.43;98898.25;4998378;28;20037;-71
2021/05/19 11:36:49;;;;;;;3.05;1.30;;;;;;;25.95;27.07;98891.03;4999549;28;20105;-73
2021/05/19 11:39:38;;;;;;;3.95;1.10;;;;;;;26.11;27.25;98892.97;4994933;28;20034;-73
2021/05/19 11:42:15;;;;;;;2.67;1.13;;;;;;;26.24;26.98;98884.44;4992871;28;20137;-75
2021/05/19 11:44:50;;;;;;;4.57;1.95;;;;;;;26.37;26.86;98879.50;4994516;28;20427;-74
2021/05/19 11:47:21;;;;;;;5.40;0.90;;;;;;;26.30;25.94;98883.41;4994493;28;20081;-76